sensor_id;sensor_type;location;lat;lon;timestamp;P1;durP1;ratioP1;P2;durP2;ratioP2
6438;SDS011;3252;52.540;13.290;2023-04-25T00:00:23;4.30;;;2.27;;
6438;SDS011;3252;52.540;13.290;2023-04-25T00:02:26;4.70;;;2.57;;
6438;SDS011;3252;52.540;13.290;2023-04-25T00:04:31;5.43;;;2.20;;
6438;SDS011;3252;52.540;13.290;2023-04-25T00:06:34;5.23;;;2.17;;
6438;SDS011;3252;52.540;13.290;2023-04-25T00:08:37;6.67;;;2.20;;
6438;SDS011;3252;52.540;13.290;2023-04-25T00:10:40;6.77;;;2.50;;
6438;SDS011;3252;52.540;13.290;2023-04-25T00:12:45;6.27;;;2.27;;
6438;SDS011;3252;52.540;13.290;2023-04-25T00:14:56;6.23;;;2.33;;
6438;SDS011;3252;52.540;13.290;2023-04-25T00:17:00;7.43;;;2.40;;
6438;SDS011;3252;52.540;13.290;2023-04-25T00:19:02;5.00;;;2.10;;
6438;SDS011;3252;52.540;13.290;2023-04-25T00:21:06;4.30;;;2.20;;
6438;SDS011;3252;52.540;13.290;2023-04-25T00:23:09;4.87;;;2.40;;
6438;SDS011;3252;52.540;13.290;2023-04-25T00:25:11;5.50;;;2.33;;
6438;SDS011;3252;52.540;13.290;2023-04-25T00:27:14;6.03;;;2.27;;
6438;SDS011;3252;52.540;13.290;2023-04-25T00:29:19;9.07;;;2.87;;
6438;SDS011;3252;52.540;13.290;2023-04-25T00:31:22;8.63;;;2.57;;
6438;SDS011;3252;52.540;13.290;2023-04-25T00:33:24;11.23;;;2.77;;
6438;SDS011;3252;52.540;13.290;2023-04-25T00:35:27;8.33;;;2.40;;
6438;SDS011;3252;52.540;13.290;2023-04-25T00:37:31;5.90;;;2.40;;
6438;SDS011;3252;52.540;13.290;2023-04-25T00:39:33;10.60;;;2.90;;
6438;SDS011;3252;52.540;13.290;2023-04-25T00:41:36;10.10;;;3.17;;
6438;SDS011;3252;52.540;13.290;2023-04-25T00:43:44;7.33;;;2.40;;
6438;SDS011;3252;52.540;13.290;2023-04-25T00:45:47;7.23;;;2.33;;
6438;SDS011;3252;52.540;13.290;2023-04-25T00:47:51;8.23;;;2.57;;
6438;SDS011;3252;52.540;13.290;2023-04-25T00:49:56;6.03;;;2.20;;
6438;SDS011;3252;52.540;13.290;2023-04-25T00:51:59;4.63;;;2.10;;
6438;SDS011;3252;52.540;13.290;2023-04-25T00:54:03;9.70;;;2.53;;
6438;SDS011;3252;52.540;13.290;2023-04-25T00:56:05;7.03;;;2.43;;
6438;SDS011;3252;52.540;13.290;2023-04-25T00:58:08;8.57;;;2.37;;
6438;SDS011;3252;52.540;13.290;2023-04-25T01:00:14;7.33;;;2.57;;
6438;SDS011;3252;52.540;13.290;2023-04-25T01:02:18;5.37;;;2.60;;
6438;SDS011;3252;52.540;13.290;2023-04-25T01:04:21;7.13;;;2.97;;
6438;SDS011;3252;52.540;13.290;2023-04-25T01:06:27;9.03;;;2.90;;
6438;SDS011;3252;52.540;13.290;2023-04-25T01:08:33;7.80;;;2.50;;
6438;SDS011;3252;52.540;13.290;2023-04-25T01:10:37;7.07;;;3.03;;
6438;SDS011;3252;52.540;13.290;2023-04-25T01:12:39;6.57;;;2.43;;
6438;SDS011;3252;52.540;13.290;2023-04-25T01:14:42;10.27;;;2.90;;
6438;SDS011;3252;52.540;13.290;2023-04-25T01:16:45;9.27;;;3.10;;
6438;SDS011;3252;52.540;13.290;2023-04-25T01:18:51;8.67;;;2.80;;
6438;SDS011;3252;52.540;13.290;2023-04-25T01:20:54;6.50;;;2.77;;
6438;SDS011;3252;52.540;13.290;2023-04-25T01:23:01;7.37;;;2.80;;
6438;SDS011;3252;52.540;13.290;2023-04-25T01:25:07;7.40;;;3.10;;
6438;SDS011;3252;52.540;13.290;2023-04-25T01:27:13;6.37;;;2.87;;
6438;SDS011;3252;52.540;13.290;2023-04-25T01:29:17;7.90;;;2.80;;
6438;SDS011;3252;52.540;13.290;2023-04-25T01:31:19;6.67;;;2.77;;
6438;SDS011;3252;52.540;13.290;2023-04-25T01:33:22;6.40;;;2.90;;
6438;SDS011;3252;52.540;13.290;2023-04-25T01:35:27;9.77;;;2.83;;
6438;SDS011;3252;52.540;13.290;2023-04-25T01:37:29;8.37;;;3.23;;
6438;SDS011;3252;52.540;13.290;2023-04-25T01:39:33;8.03;;;2.80;;
6438;SDS011;3252;52.540;13.290;2023-04-25T01:41:36;8.33;;;2.70;;
6438;SDS011;3252;52.540;13.290;2023-04-25T01:43:39;9.33;;;2.90;;
6438;SDS011;3252;52.540;13.290;2023-04-25T01:45:41;6.23;;;2.50;;
6438;SDS011;3252;52.540;13.290;2023-04-25T01:47:45;5.93;;;2.37;;
6438;SDS011;3252;52.540;13.290;2023-04-25T01:49:51;10.50;;;2.73;;
6438;SDS011;3252;52.540;13.290;2023-04-25T01:51:57;6.80;;;2.63;;
6438;SDS011;3252;52.540;13.290;2023-04-25T01:54:11;7.10;;;3.60;;
6438;SDS011;3252;52.540;13.290;2023-04-25T01:56:18;8.17;;;3.33;;
6438;SDS011;3252;52.540;13.290;2023-04-25T01:58:22;8.83;;;2.80;;
6438;SDS011;3252;52.540;13.290;2023-04-25T02:00:38;7.83;;;3.07;;
6438;SDS011;3252;52.540;13.290;2023-04-25T02:02:41;6.57;;;3.10;;
6438;SDS011;3252;52.540;13.290;2023-04-25T02:04:56;6.63;;;2.83;;
6438;SDS011;3252;52.540;13.290;2023-04-25T02:07:01;8.43;;;3.13;;
6438;SDS011;3252;52.540;13.290;2023-04-25T02:09:13;8.87;;;3.00;;
6438;SDS011;3252;52.540;13.290;2023-04-25T02:11:21;7.77;;;2.80;;
6438;SDS011;3252;52.540;13.290;2023-04-25T02:13:42;8.33;;;2.40;;
6438;SDS011;3252;52.540;13.290;2023-04-25T02:16:04;10.80;;;3.37;;
6438;SDS011;3252;52.540;13.290;2023-04-25T02:18:18;8.53;;;3.27;;
6438;SDS011;3252;52.540;13.290;2023-04-25T02:20:22;8.73;;;3.70;;
6438;SDS011;3252;52.540;13.290;2023-04-25T02:22:25;9.40;;;3.27;;
6438;SDS011;3252;52.540;13.290;2023-04-25T02:24:28;9.90;;;3.77;;
6438;SDS011;3252;52.540;13.290;2023-04-25T02:26:32;10.60;;;3.83;;
6438;SDS011;3252;52.540;13.290;2023-04-25T02:28:37;9.60;;;3.30;;
6438;SDS011;3252;52.540;13.290;2023-04-25T02:30:42;8.57;;;3.20;;
6438;SDS011;3252;52.540;13.290;2023-04-25T02:32:45;8.70;;;2.93;;
6438;SDS011;3252;52.540;13.290;2023-04-25T02:34:47;9.13;;;3.63;;
6438;SDS011;3252;52.540;13.290;2023-04-25T02:36:50;9.37;;;3.63;;
6438;SDS011;3252;52.540;13.290;2023-04-25T02:38:53;10.07;;;3.30;;
6438;SDS011;3252;52.540;13.290;2023-04-25T02:40:58;8.53;;;3.27;;
6438;SDS011;3252;52.540;13.290;2023-04-25T02:43:02;5.57;;;2.97;;
6438;SDS011;3252;52.540;13.290;2023-04-25T02:45:05;7.57;;;3.13;;
6438;SDS011;3252;52.540;13.290;2023-04-25T02:47:08;8.50;;;3.30;;
6438;SDS011;3252;52.540;13.290;2023-04-25T02:49:11;8.57;;;3.37;;
6438;SDS011;3252;52.540;13.290;2023-04-25T02:51:13;9.53;;;3.70;;
6438;SDS011;3252;52.540;13.290;2023-04-25T02:53:19;10.13;;;3.53;;
6438;SDS011;3252;52.540;13.290;2023-04-25T02:55:25;9.33;;;3.80;;
6438;SDS011;3252;52.540;13.290;2023-04-25T02:57:28;7.20;;;2.93;;
6438;SDS011;3252;52.540;13.290;2023-04-25T02:59:32;11.40;;;3.80;;
6438;SDS011;3252;52.540;13.290;2023-04-25T03:01:35;9.40;;;3.50;;
6438;SDS011;3252;52.540;13.290;2023-04-25T03:03:37;12.17;;;3.80;;
6438;SDS011;3252;52.540;13.290;2023-04-25T03:05:40;9.00;;;3.70;;
6438;SDS011;3252;52.540;13.290;2023-04-25T03:07:42;8.93;;;3.57;;
6438;SDS011;3252;52.540;13.290;2023-04-25T03:09:46;8.50;;;3.60;;
6438;SDS011;3252;52.540;13.290;2023-04-25T03:11:48;7.90;;;3.37;;
6438;SDS011;3252;52.540;13.290;2023-04-25T03:13:52;9.80;;;3.50;;
6438;SDS011;3252;52.540;13.290;2023-04-25T03:15:56;10.30;;;3.57;;
6438;SDS011;3252;52.540;13.290;2023-04-25T03:18:00;13.30;;;3.90;;
6438;SDS011;3252;52.540;13.290;2023-04-25T03:20:02;10.50;;;3.80;;
6438;SDS011;3252;52.540;13.290;2023-04-25T03:22:06;10.30;;;3.67;;
6438;SDS011;3252;52.540;13.290;2023-04-25T03:24:09;12.37;;;3.60;;
6438;SDS011;3252;52.540;13.290;2023-04-25T03:26:12;10.93;;;3.50;;
6438;SDS011;3252;52.540;13.290;2023-04-25T03:28:16;8.80;;;3.80;;
6438;SDS011;3252;52.540;13.290;2023-04-25T03:30:18;7.70;;;3.60;;
6438;SDS011;3252;52.540;13.290;2023-04-25T03:32:27;8.57;;;3.60;;
6438;SDS011;3252;52.540;13.290;2023-04-25T03:34:30;9.50;;;3.87;;
6438;SDS011;3252;52.540;13.290;2023-04-25T03:36:33;9.00;;;3.87;;
6438;SDS011;3252;52.540;13.290;2023-04-25T03:38:35;10.83;;;4.33;;
6438;SDS011;3252;52.540;13.290;2023-04-25T03:40:40;10.60;;;4.23;;
6438;SDS011;3252;52.540;13.290;2023-04-25T03:42:49;8.13;;;4.07;;
6438;SDS011;3252;52.540;13.290;2023-04-25T03:44:52;9.33;;;3.87;;
6438;SDS011;3252;52.540;13.290;2023-04-25T03:46:55;9.47;;;4.33;;
6438;SDS011;3252;52.540;13.290;2023-04-25T03:49:04;10.33;;;4.37;;
6438;SDS011;3252;52.540;13.290;2023-04-25T03:51:26;13.40;;;4.37;;
6438;SDS011;3252;52.540;13.290;2023-04-25T03:53:32;7.73;;;3.70;;
6438;SDS011;3252;52.540;13.290;2023-04-25T03:55:53;9.13;;;4.23;;
6438;SDS011;3252;52.540;13.290;2023-04-25T03:57:55;10.10;;;4.07;;
6438;SDS011;3252;52.540;13.290;2023-04-25T04:00:03;7.90;;;4.00;;
6438;SDS011;3252;52.540;13.290;2023-04-25T04:02:17;9.67;;;3.93;;
6438;SDS011;3252;52.540;13.290;2023-04-25T04:04:21;9.90;;;3.83;;
6438;SDS011;3252;52.540;13.290;2023-04-25T04:06:24;8.57;;;4.07;;
6438;SDS011;3252;52.540;13.290;2023-04-25T04:08:33;11.10;;;4.67;;
6438;SDS011;3252;52.540;13.290;2023-04-25T04:10:36;13.10;;;4.37;;
6438;SDS011;3252;52.540;13.290;2023-04-25T04:12:38;14.47;;;6.53;;
6438;SDS011;3252;52.540;13.290;2023-04-25T04:14:41;20.47;;;6.80;;
6438;SDS011;3252;52.540;13.290;2023-04-25T04:16:46;10.23;;;4.33;;
6438;SDS011;3252;52.540;13.290;2023-04-25T04:18:49;12.40;;;3.90;;
6438;SDS011;3252;52.540;13.290;2023-04-25T04:20:56;9.10;;;4.60;;
6438;SDS011;3252;52.540;13.290;2023-04-25T04:23:04;10.47;;;4.37;;
6438;SDS011;3252;52.540;13.290;2023-04-25T04:25:07;14.33;;;8.23;;
6438;SDS011;3252;52.540;13.290;2023-04-25T04:27:30;13.87;;;6.47;;
6438;SDS011;3252;52.540;13.290;2023-04-25T04:29:58;11.73;;;4.73;;
6438;SDS011;3252;52.540;13.290;2023-04-25T04:32:12;15.40;;;5.07;;
6438;SDS011;3252;52.540;13.290;2023-04-25T04:34:15;14.50;;;5.93;;
6438;SDS011;3252;52.540;13.290;2023-04-25T04:36:20;13.30;;;5.07;;
6438;SDS011;3252;52.540;13.290;2023-04-25T04:38:24;10.60;;;4.07;;
6438;SDS011;3252;52.540;13.290;2023-04-25T04:40:32;13.03;;;4.73;;
6438;SDS011;3252;52.540;13.290;2023-04-25T04:42:44;13.53;;;4.20;;
6438;SDS011;3252;52.540;13.290;2023-04-25T04:45:20;11.27;;;4.13;;
6438;SDS011;3252;52.540;13.290;2023-04-25T04:47:46;12.50;;;4.20;;
6438;SDS011;3252;52.540;13.290;2023-04-25T04:50:21;15.97;;;5.03;;
6438;SDS011;3252;52.540;13.290;2023-04-25T04:52:54;13.20;;;4.03;;
6438;SDS011;3252;52.540;13.290;2023-04-25T04:55:28;11.33;;;4.20;;
6438;SDS011;3252;52.540;13.290;2023-04-25T04:57:49;9.27;;;3.90;;
6438;SDS011;3252;52.540;13.290;2023-04-25T05:00:12;13.93;;;4.53;;
6438;SDS011;3252;52.540;13.290;2023-04-25T05:02:37;14.03;;;4.90;;
6438;SDS011;3252;52.540;13.290;2023-04-25T05:05:15;12.53;;;4.40;;
6438;SDS011;3252;52.540;13.290;2023-04-25T05:07:41;11.53;;;3.87;;
6438;SDS011;3252;52.540;13.290;2023-04-25T05:10:18;12.27;;;4.27;;
6438;SDS011;3252;52.540;13.290;2023-04-25T05:12:30;12.50;;;4.20;;
6438;SDS011;3252;52.540;13.290;2023-04-25T05:14:46;12.87;;;4.37;;
6438;SDS011;3252;52.540;13.290;2023-04-25T05:17:12;12.37;;;4.60;;
6438;SDS011;3252;52.540;13.290;2023-04-25T05:19:37;9.73;;;4.20;;
6438;SDS011;3252;52.540;13.290;2023-04-25T05:21:59;15.03;;;4.77;;
6438;SDS011;3252;52.540;13.290;2023-04-25T05:24:11;9.53;;;4.20;;
6438;SDS011;3252;52.540;13.290;2023-04-25T05:26:20;9.03;;;4.23;;
6438;SDS011;3252;52.540;13.290;2023-04-25T05:28:47;11.97;;;4.10;;
6438;SDS011;3252;52.540;13.290;2023-04-25T05:30:51;10.00;;;3.70;;
6438;SDS011;3252;52.540;13.290;2023-04-25T05:33:00;11.60;;;4.10;;
6438;SDS011;3252;52.540;13.290;2023-04-25T05:35:02;9.03;;;4.67;;
6438;SDS011;3252;52.540;13.290;2023-04-25T05:37:13;13.33;;;5.00;;
6438;SDS011;3252;52.540;13.290;2023-04-25T05:39:27;10.40;;;4.03;;
6438;SDS011;3252;52.540;13.290;2023-04-25T05:42:01;10.20;;;4.03;;
6438;SDS011;3252;52.540;13.290;2023-04-25T05:44:23;13.17;;;4.20;;
6438;SDS011;3252;52.540;13.290;2023-04-25T05:46:46;9.60;;;4.13;;
6438;SDS011;3252;52.540;13.290;2023-04-25T05:49:17;10.90;;;4.20;;
6438;SDS011;3252;52.540;13.290;2023-04-25T05:51:58;10.07;;;4.37;;
6438;SDS011;3252;52.540;13.290;2023-04-25T05:54:19;14.30;;;5.00;;
6438;SDS011;3252;52.540;13.290;2023-04-25T05:56:25;14.30;;;4.50;;
6438;SDS011;3252;52.540;13.290;2023-04-25T05:58:29;13.70;;;4.90;;
6438;SDS011;3252;52.540;13.290;2023-04-25T06:00:33;16.53;;;5.33;;
6438;SDS011;3252;52.540;13.290;2023-04-25T06:02:36;16.03;;;5.43;;
6438;SDS011;3252;52.540;13.290;2023-04-25T06:04:38;14.87;;;5.37;;
6438;SDS011;3252;52.540;13.290;2023-04-25T06:06:40;14.53;;;6.00;;
6438;SDS011;3252;52.540;13.290;2023-04-25T06:08:43;15.70;;;6.27;;
6438;SDS011;3252;52.540;13.290;2023-04-25T06:10:46;21.63;;;10.97;;
6438;SDS011;3252;52.540;13.290;2023-04-25T06:12:49;11.90;;;4.93;;
6438;SDS011;3252;52.540;13.290;2023-04-25T06:14:54;10.80;;;4.23;;
6438;SDS011;3252;52.540;13.290;2023-04-25T06:16:56;10.80;;;4.10;;
6438;SDS011;3252;52.540;13.290;2023-04-25T06:19:00;9.60;;;4.37;;
6438;SDS011;3252;52.540;13.290;2023-04-25T06:21:03;12.03;;;4.60;;
6438;SDS011;3252;52.540;13.290;2023-04-25T06:23:07;14.37;;;4.83;;
6438;SDS011;3252;52.540;13.290;2023-04-25T06:25:20;13.13;;;4.90;;
6438;SDS011;3252;52.540;13.290;2023-04-25T06:27:23;12.83;;;4.53;;
6438;SDS011;3252;52.540;13.290;2023-04-25T06:29:25;16.93;;;4.67;;
6438;SDS011;3252;52.540;13.290;2023-04-25T06:31:29;14.07;;;4.60;;
6438;SDS011;3252;52.540;13.290;2023-04-25T06:33:34;12.67;;;4.77;;
6438;SDS011;3252;52.540;13.290;2023-04-25T06:35:37;9.50;;;4.20;;
6438;SDS011;3252;52.540;13.290;2023-04-25T06:37:41;12.60;;;4.80;;
6438;SDS011;3252;52.540;13.290;2023-04-25T06:39:43;10.63;;;4.50;;
6438;SDS011;3252;52.540;13.290;2023-04-25T06:41:45;13.13;;;4.77;;
6438;SDS011;3252;52.540;13.290;2023-04-25T06:44:23;15.43;;;4.93;;
6438;SDS011;3252;52.540;13.290;2023-04-25T06:46:27;11.73;;;4.53;;
6438;SDS011;3252;52.540;13.290;2023-04-25T06:48:33;13.37;;;4.80;;
6438;SDS011;3252;52.540;13.290;2023-04-25T06:50:36;12.60;;;4.53;;
6438;SDS011;3252;52.540;13.290;2023-04-25T06:52:38;12.13;;;4.50;;
6438;SDS011;3252;52.540;13.290;2023-04-25T06:54:40;6.70;;;3.50;;
6438;SDS011;3252;52.540;13.290;2023-04-25T06:56:55;8.30;;;3.70;;
6438;SDS011;3252;52.540;13.290;2023-04-25T06:58:58;11.57;;;3.67;;
6438;SDS011;3252;52.540;13.290;2023-04-25T07:01:06;9.70;;;3.70;;
6438;SDS011;3252;52.540;13.290;2023-04-25T07:03:09;9.17;;;4.03;;
6438;SDS011;3252;52.540;13.290;2023-04-25T07:05:13;13.37;;;4.00;;
6438;SDS011;3252;52.540;13.290;2023-04-25T07:07:15;10.20;;;4.10;;
6438;SDS011;3252;52.540;13.290;2023-04-25T07:09:27;11.13;;;3.50;;
6438;SDS011;3252;52.540;13.290;2023-04-25T07:11:30;15.13;;;4.50;;
6438;SDS011;3252;52.540;13.290;2023-04-25T07:13:32;14.47;;;4.73;;
6438;SDS011;3252;52.540;13.290;2023-04-25T07:15:35;13.17;;;4.03;;
6438;SDS011;3252;52.540;13.290;2023-04-25T07:17:37;15.27;;;4.47;;
6438;SDS011;3252;52.540;13.290;2023-04-25T07:19:39;13.17;;;3.87;;
6438;SDS011;3252;52.540;13.290;2023-04-25T07:21:44;15.93;;;4.07;;
6438;SDS011;3252;52.540;13.290;2023-04-25T07:23:47;11.30;;;4.20;;
6438;SDS011;3252;52.540;13.290;2023-04-25T07:25:53;10.27;;;4.00;;
6438;SDS011;3252;52.540;13.290;2023-04-25T07:27:58;14.83;;;4.53;;
6438;SDS011;3252;52.540;13.290;2023-04-25T07:30:02;14.57;;;4.33;;
6438;SDS011;3252;52.540;13.290;2023-04-25T07:32:05;14.67;;;4.20;;
6438;SDS011;3252;52.540;13.290;2023-04-25T07:34:08;14.67;;;4.40;;
6438;SDS011;3252;52.540;13.290;2023-04-25T07:36:12;15.80;;;4.37;;
6438;SDS011;3252;52.540;13.290;2023-04-25T07:38:17;17.47;;;4.53;;
6438;SDS011;3252;52.540;13.290;2023-04-25T07:40:19;22.07;;;5.63;;
6438;SDS011;3252;52.540;13.290;2023-04-25T07:42:29;15.60;;;4.50;;
6438;SDS011;3252;52.540;13.290;2023-04-25T07:44:32;20.13;;;4.73;;
6438;SDS011;3252;52.540;13.290;2023-04-25T07:46:38;17.30;;;4.73;;
6438;SDS011;3252;52.540;13.290;2023-04-25T07:48:42;19.97;;;5.00;;
6438;SDS011;3252;52.540;13.290;2023-04-25T07:50:45;17.83;;;4.27;;
6438;SDS011;3252;52.540;13.290;2023-04-25T07:52:47;20.50;;;4.67;;
6438;SDS011;3252;52.540;13.290;2023-04-25T07:54:58;19.23;;;4.77;;
6438;SDS011;3252;52.540;13.290;2023-04-25T07:57:12;24.20;;;4.67;;
6438;SDS011;3252;52.540;13.290;2023-04-25T07:59:14;16.87;;;4.77;;
6438;SDS011;3252;52.540;13.290;2023-04-25T08:01:16;19.17;;;4.93;;
6438;SDS011;3252;52.540;13.290;2023-04-25T08:03:26;20.73;;;4.47;;
6438;SDS011;3252;52.540;13.290;2023-04-25T08:05:29;18.40;;;4.70;;
6438;SDS011;3252;52.540;13.290;2023-04-25T08:07:36;26.77;;;5.83;;
6438;SDS011;3252;52.540;13.290;2023-04-25T08:09:40;23.20;;;5.57;;
6438;SDS011;3252;52.540;13.290;2023-04-25T08:11:49;20.10;;;5.17;;
6438;SDS011;3252;52.540;13.290;2023-04-25T08:13:59;19.87;;;5.60;;
6438;SDS011;3252;52.540;13.290;2023-04-25T08:16:02;22.07;;;5.23;;
6438;SDS011;3252;52.540;13.290;2023-04-25T08:18:04;20.30;;;5.30;;
6438;SDS011;3252;52.540;13.290;2023-04-25T08:20:07;22.27;;;5.27;;
6438;SDS011;3252;52.540;13.290;2023-04-25T08:22:12;23.27;;;5.20;;
6438;SDS011;3252;52.540;13.290;2023-04-25T08:24:24;21.43;;;4.60;;
6438;SDS011;3252;52.540;13.290;2023-04-25T08:26:27;27.20;;;5.90;;
6438;SDS011;3252;52.540;13.290;2023-04-25T08:28:31;27.03;;;5.33;;
6438;SDS011;3252;52.540;13.290;2023-04-25T08:30:36;24.80;;;5.23;;
6438;SDS011;3252;52.540;13.290;2023-04-25T08:32:39;19.13;;;4.83;;
6438;SDS011;3252;52.540;13.290;2023-04-25T08:34:53;21.60;;;5.13;;
6438;SDS011;3252;52.540;13.290;2023-04-25T08:36:55;20.47;;;4.47;;
6438;SDS011;3252;52.540;13.290;2023-04-25T08:39:08;25.17;;;5.07;;
6438;SDS011;3252;52.540;13.290;2023-04-25T08:41:19;25.97;;;5.00;;
6438;SDS011;3252;52.540;13.290;2023-04-25T08:43:23;23.57;;;4.70;;
6438;SDS011;3252;52.540;13.290;2023-04-25T08:45:28;19.97;;;4.37;;
6438;SDS011;3252;52.540;13.290;2023-04-25T08:47:34;21.00;;;4.73;;
6438;SDS011;3252;52.540;13.290;2023-04-25T08:49:39;23.63;;;5.17;;
6438;SDS011;3252;52.540;13.290;2023-04-25T08:51:45;18.40;;;3.87;;
6438;SDS011;3252;52.540;13.290;2023-04-25T08:53:50;16.80;;;4.67;;
6438;SDS011;3252;52.540;13.290;2023-04-25T08:55:54;12.90;;;4.13;;
6438;SDS011;3252;52.540;13.290;2023-04-25T08:57:58;15.23;;;4.50;;
6438;SDS011;3252;52.540;13.290;2023-04-25T09:00:01;15.60;;;4.63;;
6438;SDS011;3252;52.540;13.290;2023-04-25T09:02:09;16.13;;;4.10;;
6438;SDS011;3252;52.540;13.290;2023-04-25T09:04:14;17.70;;;4.60;;
6438;SDS011;3252;52.540;13.290;2023-04-25T09:06:17;14.00;;;4.40;;
6438;SDS011;3252;52.540;13.290;2023-04-25T09:08:23;17.57;;;3.57;;
6438;SDS011;3252;52.540;13.290;2023-04-25T09:10:25;19.40;;;3.97;;
6438;SDS011;3252;52.540;13.290;2023-04-25T09:12:30;13.57;;;3.90;;
6438;SDS011;3252;52.540;13.290;2023-04-25T09:14:33;14.47;;;4.20;;
6438;SDS011;3252;52.540;13.290;2023-04-25T09:19:22;12.87;;;3.67;;
6438;SDS011;3252;52.540;13.290;2023-04-25T09:21:25;14.37;;;4.10;;
6438;SDS011;3252;52.540;13.290;2023-04-25T09:23:31;13.07;;;4.20;;
6438;SDS011;3252;52.540;13.290;2023-04-25T09:25:41;18.77;;;3.93;;
6438;SDS011;3252;52.540;13.290;2023-04-25T09:27:53;14.83;;;4.07;;
6438;SDS011;3252;52.540;13.290;2023-04-25T09:30:01;11.67;;;3.43;;
6438;SDS011;3252;52.540;13.290;2023-04-25T09:32:20;11.63;;;3.20;;
6438;SDS011;3252;52.540;13.290;2023-04-25T09:34:27;14.17;;;3.30;;
6438;SDS011;3252;52.540;13.290;2023-04-25T09:36:31;16.23;;;3.40;;
6438;SDS011;3252;52.540;13.290;2023-04-25T09:38:54;14.17;;;3.30;;
6438;SDS011;3252;52.540;13.290;2023-04-25T09:41:02;15.37;;;3.63;;
6438;SDS011;3252;52.540;13.290;2023-04-25T09:43:18;11.53;;;3.90;;
6438;SDS011;3252;52.540;13.290;2023-04-25T09:45:23;16.13;;;3.30;;
6438;SDS011;3252;52.540;13.290;2023-04-25T09:47:25;12.70;;;3.67;;
6438;SDS011;3252;52.540;13.290;2023-04-25T09:49:30;12.27;;;3.53;;
6438;SDS011;3252;52.540;13.290;2023-04-25T09:51:39;16.57;;;3.17;;
6438;SDS011;3252;52.540;13.290;2023-04-25T09:53:44;13.13;;;3.10;;
6438;SDS011;3252;52.540;13.290;2023-04-25T09:55:59;15.57;;;3.43;;
6438;SDS011;3252;52.540;13.290;2023-04-25T09:58:05;14.17;;;3.70;;
6438;SDS011;3252;52.540;13.290;2023-04-25T10:00:08;15.23;;;3.60;;
6438;SDS011;3252;52.540;13.290;2023-04-25T10:02:16;14.43;;;3.40;;
6438;SDS011;3252;52.540;13.290;2023-04-25T10:04:22;11.30;;;3.23;;
6438;SDS011;3252;52.540;13.290;2023-04-25T10:06:34;11.60;;;3.30;;
6438;SDS011;3252;52.540;13.290;2023-04-25T10:08:38;14.17;;;3.23;;
6438;SDS011;3252;52.540;13.290;2023-04-25T10:10:41;20.20;;;3.27;;
6438;SDS011;3252;52.540;13.290;2023-04-25T10:12:44;13.57;;;3.40;;
6438;SDS011;3252;52.540;13.290;2023-04-25T10:14:46;17.17;;;3.37;;
6438;SDS011;3252;52.540;13.290;2023-04-25T10:16:49;10.93;;;3.50;;
6438;SDS011;3252;52.540;13.290;2023-04-25T10:18:54;14.10;;;3.40;;
6438;SDS011;3252;52.540;13.290;2023-04-25T10:20:57;16.90;;;3.23;;
6438;SDS011;3252;52.540;13.290;2023-04-25T10:23:06;17.20;;;3.60;;
6438;SDS011;3252;52.540;13.290;2023-04-25T10:25:15;17.40;;;3.27;;
6438;SDS011;3252;52.540;13.290;2023-04-25T10:27:18;10.67;;;2.97;;
6438;SDS011;3252;52.540;13.290;2023-04-25T10:29:24;10.73;;;3.40;;
6438;SDS011;3252;52.540;13.290;2023-04-25T10:31:26;12.00;;;3.50;;
6438;SDS011;3252;52.540;13.290;2023-04-25T10:33:33;12.73;;;3.00;;
6438;SDS011;3252;52.540;13.290;2023-04-25T10:35:37;19.77;;;3.80;;
6438;SDS011;3252;52.540;13.290;2023-04-25T10:37:56;14.83;;;3.60;;
6438;SDS011;3252;52.540;13.290;2023-04-25T10:40:01;12.63;;;3.20;;
6438;SDS011;3252;52.540;13.290;2023-04-25T10:42:11;9.00;;;2.83;;
6438;SDS011;3252;52.540;13.290;2023-04-25T10:44:13;14.57;;;3.57;;
6438;SDS011;3252;52.540;13.290;2023-04-25T10:46:16;12.67;;;3.00;;
6438;SDS011;3252;52.540;13.290;2023-04-25T10:48:24;13.63;;;3.00;;
6438;SDS011;3252;52.540;13.290;2023-04-25T10:50:31;17.30;;;3.20;;
6438;SDS011;3252;52.540;13.290;2023-04-25T10:52:39;13.37;;;3.33;;
6438;SDS011;3252;52.540;13.290;2023-04-25T10:54:41;11.13;;;2.83;;
6438;SDS011;3252;52.540;13.290;2023-04-25T10:56:45;14.90;;;3.13;;
6438;SDS011;3252;52.540;13.290;2023-04-25T10:58:50;11.13;;;3.17;;
6438;SDS011;3252;52.540;13.290;2023-04-25T11:00:52;29.23;;;3.70;;
6438;SDS011;3252;52.540;13.290;2023-04-25T11:02:57;13.33;;;3.17;;
6438;SDS011;3252;52.540;13.290;2023-04-25T11:05:01;15.23;;;3.30;;
6438;SDS011;3252;52.540;13.290;2023-04-25T11:07:06;9.97;;;3.00;;
6438;SDS011;3252;52.540;13.290;2023-04-25T11:09:14;17.43;;;3.43;;
6438;SDS011;3252;52.540;13.290;2023-04-25T11:11:16;15.20;;;3.13;;
6438;SDS011;3252;52.540;13.290;2023-04-25T11:13:21;17.17;;;3.50;;
6438;SDS011;3252;52.540;13.290;2023-04-25T11:15:23;13.80;;;3.53;;
6438;SDS011;3252;52.540;13.290;2023-04-25T11:17:27;13.23;;;3.00;;
6438;SDS011;3252;52.540;13.290;2023-04-25T11:19:30;20.23;;;8.00;;
6438;SDS011;3252;52.540;13.290;2023-04-25T11:21:33;17.57;;;3.83;;
6438;SDS011;3252;52.540;13.290;2023-04-25T11:23:35;13.33;;;4.37;;
6438;SDS011;3252;52.540;13.290;2023-04-25T11:25:38;12.60;;;2.90;;
6438;SDS011;3252;52.540;13.290;2023-04-25T11:27:49;10.17;;;2.60;;
6438;SDS011;3252;52.540;13.290;2023-04-25T11:29:53;10.67;;;2.53;;
6438;SDS011;3252;52.540;13.290;2023-04-25T11:31:55;9.77;;;2.30;;
6438;SDS011;3252;52.540;13.290;2023-04-25T11:34:00;11.23;;;2.73;;
6438;SDS011;3252;52.540;13.290;2023-04-25T11:36:03;16.27;;;2.90;;
6438;SDS011;3252;52.540;13.290;2023-04-25T11:38:05;10.40;;;2.83;;
6438;SDS011;3252;52.540;13.290;2023-04-25T11:40:08;16.20;;;2.50;;
6438;SDS011;3252;52.540;13.290;2023-04-25T11:42:12;10.70;;;2.53;;
6438;SDS011;3252;52.540;13.290;2023-04-25T11:44:15;8.30;;;3.00;;
6438;SDS011;3252;52.540;13.290;2023-04-25T11:46:19;12.17;;;2.57;;
6438;SDS011;3252;52.540;13.290;2023-04-25T11:48:21;12.90;;;3.00;;
6438;SDS011;3252;52.540;13.290;2023-04-25T11:50:23;12.43;;;2.90;;
6438;SDS011;3252;52.540;13.290;2023-04-25T11:52:34;14.43;;;2.77;;
6438;SDS011;3252;52.540;13.290;2023-04-25T11:54:37;11.93;;;2.80;;
6438;SDS011;3252;52.540;13.290;2023-04-25T11:56:40;11.40;;;2.37;;
6438;SDS011;3252;52.540;13.290;2023-04-25T11:58:56;11.27;;;3.00;;
6438;SDS011;3252;52.540;13.290;2023-04-25T12:00:58;6.80;;;2.53;;
6438;SDS011;3252;52.540;13.290;2023-04-25T12:03:02;15.97;;;2.77;;
6438;SDS011;3252;52.540;13.290;2023-04-25T12:05:06;14.07;;;3.10;;
6438;SDS011;3252;52.540;13.290;2023-04-25T12:07:09;12.60;;;3.20;;
6438;SDS011;3252;52.540;13.290;2023-04-25T12:09:11;14.67;;;3.00;;
6438;SDS011;3252;52.540;13.290;2023-04-25T12:11:20;17.13;;;3.27;;
6438;SDS011;3252;52.540;13.290;2023-04-25T12:13:23;16.10;;;3.23;;
6438;SDS011;3252;52.540;13.290;2023-04-25T12:15:26;15.53;;;2.90;;
6438;SDS011;3252;52.540;13.290;2023-04-25T12:17:28;17.97;;;2.60;;
6438;SDS011;3252;52.540;13.290;2023-04-25T12:19:35;14.37;;;3.00;;
6438;SDS011;3252;52.540;13.290;2023-04-25T12:21:40;9.33;;;2.93;;
6438;SDS011;3252;52.540;13.290;2023-04-25T12:23:42;12.97;;;3.20;;
6438;SDS011;3252;52.540;13.290;2023-04-25T12:25:44;7.87;;;2.60;;
6438;SDS011;3252;52.540;13.290;2023-04-25T12:27:47;7.40;;;3.17;;
6438;SDS011;3252;52.540;13.290;2023-04-25T12:29:50;8.60;;;3.20;;
6438;SDS011;3252;52.540;13.290;2023-04-25T12:31:53;9.37;;;2.60;;
6438;SDS011;3252;52.540;13.290;2023-04-25T12:33:56;9.63;;;2.87;;
6438;SDS011;3252;52.540;13.290;2023-04-25T12:36:00;8.30;;;2.73;;
6438;SDS011;3252;52.540;13.290;2023-04-25T12:38:08;13.33;;;3.17;;
6438;SDS011;3252;52.540;13.290;2023-04-25T12:40:11;14.20;;;3.00;;
6438;SDS011;3252;52.540;13.290;2023-04-25T12:42:13;7.47;;;2.37;;
6438;SDS011;3252;52.540;13.290;2023-04-25T12:44:15;8.43;;;2.57;;
6438;SDS011;3252;52.540;13.290;2023-04-25T12:46:18;12.47;;;2.80;;
6438;SDS011;3252;52.540;13.290;2023-04-25T12:48:20;12.87;;;2.80;;
6438;SDS011;3252;52.540;13.290;2023-04-25T12:50:23;12.80;;;2.60;;